Weather at Denver International Airport

Public forecast

Using degrees Fahrenheit for public forecast. Weather courtesy of forecast.io.

Current aviation weather report (METAR) for Denver International Airport

2022/11/30 08:53 (retrieved 59 minutes ago)

KDEN 300853Z 16008KT 10SM CLR M16/M19 A3005 RMK AO2 SLP240 T11561194 51004

Aviation forecast (TAF) for Denver International Airport

2022/11/30 09:09 Ammendment (retrieved 43 minutes ago)

TAF AMD KDEN 300906Z 3009/0112 16007KT P6SM SKC FM301400 VRB06KT P6SM SCT200 FM010200 21007KT P6SM FEW250 FM010700 20009KT P6SM FEW250